Time;durP1;ratioP1;P1;durP2;ratioP2;P2;SDS_P1;SDS_P2;PMS_P1;PMS_P2;Temp;Humidity;BMP_temperature;BMP_pressure;BME280_temperature;BME280_humidity;BME280_pressure;Samples;Min_cycle;Max_cycle;Signal;HPM_P1;HPM_P2
2022/08/17 00:01:18;;;;;;;16.95;12.33;;;;;;;21.55;87.04;100261.15;1673394;85;22083;-92
2022/08/17 00:03:47;;;;;;;16.52;12.03;;;;;;;21.57;87.07;100259.97;1674806;83;20968;-93
2022/08/17 00:06:22;;;;;;;14.47;11.50;;;;;;;21.57;87.25;100259.97;1671190;84;20979;-90
2022/08/17 00:08:52;;;;;;;;;;;;;;;21.58;87.43;100253.61;1640477;85;21094;-91
2022/08/17 00:11:32;;;;;;;19.02;10.88;;;;;;;21.58;87.35;100255.45;1670563;83;20091;-93
2022/08/17 00:14:06;;;;;;;15.03;11.12;;;;;;;21.55;87.32;100254.47;1680196;85;21372;-92
2022/08/17 00:16:37;;;;;;;15.25;10.23;;;;;;;21.52;87.37;100257.81;1692731;84;20927;-93
2022/08/17 00:19:09;;;;;;;22.62;10.43;;;;;;;21.50;87.42;100254.48;1673964;84;20918;-93
2022/08/17 00:21:38;;;;;;;16.73;12.58;;;;;;;21.48;87.42;100252.48;1639997;86;21050;-93
2022/08/17 00:24:05;;;;;;;17.62;11.90;;;;;;;21.46;87.45;100253.67;1673119;85;20908;-94
2022/08/17 00:26:33;;;;;;;21.68;16.77;;;;;;;21.44;87.63;100252.50;1670585;84;21145;-93
2022/08/17 00:29:01;;;;;;;18.98;15.15;;;;;;;21.42;87.97;100251.83;1682314;84;20908;-92
2022/08/17 00:31:28;;;;;;;16.87;12.05;;;;;;;21.41;88.12;100251.52;1680940;85;21018;-94
2022/08/17 00:33:55;;;;;;;16.05;11.53;;;;;;;21.41;88.17;100260.00;1643146;84;21047;-92
2022/08/17 00:36:22;;;;;;;20.43;12.13;;;;;;;21.41;88.51;100252.86;1640963;87;20967;-91
2022/08/17 00:38:50;;;;;;;17.60;12.78;;;;;;;21.42;88.79;100257.17;1665962;84;21309;-92
2022/08/17 00:41:20;;;;;;;17.07;14.38;;;;;;;21.45;88.93;100262.66;1672307;85;20911;-92
2022/08/17 00:43:51;;;;;;;18.92;12.82;;;;;;;21.47;89.09;100265.48;1669053;85;20971;-93
2022/08/17 00:46:27;;;;;;;17.52;12.65;;;;;;;21.49;89.22;100264.81;1670505;85;20923;-93
2022/08/17 00:48:57;;;;;;;16.37;11.57;;;;;;;21.55;89.29;100261.15;1671550;84;20994;-94
2022/08/17 00:51:43;;;;;;;15.80;12.40;;;;;;;21.57;89.29;100267.97;1674947;83;21206;-94
2022/08/17 00:54:28;;;;;;;18.67;12.28;;;;;;;21.59;89.27;100268.63;1638808;87;20912;-94
2022/08/17 00:57:02;;;;;;;14.73;11.88;;;;;;;21.63;89.27;100269.95;1673437;85;21385;-94
2022/08/17 00:59:34;;;;;;;12.23;10.82;;;;;;;21.66;89.31;100270.94;1647737;85;20995;-93
2022/08/17 01:02:04;;;;;;;18.40;11.35;;;;;;;21.69;89.11;100267.91;1688026;85;20995;-94
2022/08/17 01:04:32;;;;;;;16.65;12.10;;;;;;;21.70;88.97;100264.76;1693045;85;21335;-94
2022/08/17 01:06:59;;;;;;;13.00;11.33;;;;;;;21.69;88.88;100265.23;1690588;83;21433;-94
2022/08/17 01:09:27;;;;;;;16.48;12.47;;;;;;;21.68;88.76;100262.77;1688589;84;20990;-92
2022/08/17 01:11:54;;;;;;;15.03;11.95;;;;;;;21.64;88.67;100259.59;1693401;85;21013;-91
2022/08/17 01:14:23;;;;;;;21.85;13.65;;;;;;;21.63;88.65;100255.28;1695047;83;20924;-92
2022/08/17 01:16:53;;;;;;;20.30;13.68;;;;;;;21.61;88.52;100251.95;1694315;83;21102;-93
2022/08/17 01:19:24;;;;;;;17.05;12.05;;;;;;;21.58;88.39;100248.78;1689803;83;20925;-93
2022/08/17 01:22:13;;;;;;;20.50;12.23;;;;;;;21.56;88.50;100253.45;1686063;83;20960;-93
2022/08/17 01:24:47;;;;;;;18.02;12.00;;;;;;;21.51;88.67;100257.47;1691968;83;20959;-91
2022/08/17 01:27:15;;;;;;;19.32;12.23;;;;;;;21.47;88.82;100245.98;1691548;83;20924;-93
2022/08/17 01:29:47;;;;;;;19.85;12.35;;;;;;;21.43;88.90;100248.18;1691113;83;21777;-94
2022/08/17 01:32:14;;;;;;;14.45;12.78;;;;;;;21.41;89.09;100252.00;1665899;83;21097;-94
2022/08/17 01:34:43;;;;;;;17.42;12.28;;;;;;;21.37;89.25;100245.34;1690432;83;20948;-92
2022/08/17 01:37:11;;;;;;;19.62;13.68;;;;;;;21.32;89.62;100248.02;1681316;84;20928;-93
2022/08/17 01:39:43;;;;;;;18.40;12.80;;;;;;;21.30;89.91;100246.52;1686476;84;21133;-93
2022/08/17 01:42:19;;;;;;;13.75;12.25;;;;;;;21.28;90.13;100241.34;1696069;83;21100;-93
2022/08/17 01:44:45;;;;;;;14.33;12.88;;;;;;;21.27;90.37;100240.17;1696774;83;20928;-92
2022/08/17 01:47:12;;;;;;;17.87;13.13;;;;;;;21.26;90.67;100235.86;1692382;83;20916;-93
2022/08/17 01:49:38;;;;;;;21.10;13.83;;;;;;;21.25;90.75;100236.34;1696584;83;20902;-91
2022/08/17 01:52:07;;;;;;;18.80;14.05;;;;;;;21.24;90.88;100235.20;1693675;83;20975;-93
2022/08/17 01:54:34;;;;;;;22.13;14.95;;;;;;;21.21;91.00;100232.38;1694891;83;21278;-92
2022/08/17 01:57:01;;;;;;;14.78;12.82;;;;;;;21.20;91.06;100232.53;1686099;84;21410;-92
2022/08/17 01:59:28;;;;;;;17.92;14.60;;;;;;;21.18;91.11;100230.03;1678825;84;20992;-92
2022/08/17 02:01:55;;;;;;;20.10;16.62;;;;;;;21.16;91.06;100224.54;1689280;84;20904;-92
2022/08/17 02:04:21;;;;;;;24.20;13.55;;;;;;;21.13;91.15;100226.23;1688131;84;20939;-93
2022/08/17 02:06:49;;;;;;;21.05;13.45;;;;;;;21.08;91.17;100225.41;1677290;85;21243;-93
2022/08/17 02:09:16;;;;;;;21.87;14.40;;;;;;;21.04;90.98;100232.08;1652892;86;20939;-93
2022/08/17 02:11:42;;;;;;;21.27;13.25;;;;;;;20.98;90.79;100229.57;1674840;85;20876;-93
2022/08/17 02:14:09;;;;;;;20.97;13.28;;;;;;;20.93;90.78;100230.59;1672139;85;21488;-93
2022/08/17 02:16:39;;;;;;;19.48;13.22;;;;;;;20.87;90.85;100232.08;1674441;85;20880;-94
2022/08/17 02:19:12;;;;;;;23.25;13.00;;;;;;;20.82;90.96;100225.10;1694510;83;21394;-92
2022/08/17 02:21:39;;;;;;;24.63;13.88;;;;;;;20.77;91.21;100227.95;1678588;84;21531;-92
2022/08/17 02:24:16;;;;;;;16.77;13.53;;;;;;;20.73;91.51;100229.28;1630999;88;20944;-93
2022/08/17 02:26:43;;;;;;;15.75;12.95;;;;;;;20.70;91.87;100227.28;1661609;84;21048;-93
2022/08/17 02:29:10;;;;;;;25.20;13.83;;;;;;;20.68;92.18;100221.80;1666381;85;20980;-94
2022/08/17 02:31:37;;;;;;;18.82;13.58;;;;;;;20.65;92.14;100217.64;1640151;85;21587;-93
2022/08/17 02:34:05;;;;;;;20.48;14.70;;;;;;;20.63;92.44;100227.63;1676470;85;20955;-93
2022/08/17 02:36:34;;;;;;;22.60;15.83;;;;;;;20.63;92.35;100226.77;1648469;86;21462;-93
2022/08/17 02:39:05;;;;;;;24.52;14.80;;;;;;;20.62;92.29;100226.45;1659900;85;20959;-92
2022/08/17 02:41:32;;;;;;;17.82;14.23;;;;;;;20.60;92.16;100226.61;1662823;85;20905;-91
2022/08/17 02:44:00;;;;;;;18.62;13.55;;;;;;;20.59;91.91;100230.80;1653073;85;21170;-95
2022/08/17 02:46:27;;;;;;;23.85;13.35;;;;;;;20.56;91.71;100231.08;1660059;84;20949;-93
2022/08/17 02:48:53;;;;;;;20.05;12.00;;;;;;;20.53;91.51;100231.42;1666659;85;20960;-94
2022/08/17 02:51:22;;;;;;;21.20;13.28;;;;;;;20.51;91.44;100231.58;1664726;82;20932;-93
2022/08/17 02:53:49;;;;;;;22.65;13.18;;;;;;;20.49;91.32;100226.91;1663810;85;21035;-92
2022/08/17 02:56:16;;;;;;;20.43;13.08;;;;;;;20.47;91.13;100228.41;1656786;86;21165;-93
2022/08/17 02:58:43;;;;;;;13.68;12.20;;;;;;;20.46;90.94;100227.27;1648570;86;21008;-92
2022/08/17 03:01:11;;;;;;;19.65;13.43;;;;;;;20.43;90.79;100219.11;1653729;86;20975;-94
2022/08/17 03:03:38;;;;;;;19.48;12.45;;;;;;;20.42;90.69;100223.26;1654972;85;20933;-94
2022/08/17 03:06:06;;;;;;;21.07;11.68;;;;;;;20.41;90.62;100219.77;1650948;86;20960;-94
2022/08/17 03:08:33;;;;;;;16.30;10.98;;;;;;;20.40;90.47;100227.41;1656493;86;21250;-93
2022/08/17 03:11:00;;;;;;;16.50;12.03;;;;;;;20.39;90.44;100230.27;1640115;86;20988;-93
2022/08/17 03:13:27;;;;;;;16.75;12.53;;;;;;;20.38;90.53;100228.07;1648842;85;21008;-94
2022/08/17 03:15:55;;;;;;;21.57;11.75;;;;;;;20.37;90.72;100226.92;1658073;85;20912;-93
2022/08/17 03:18:22;;;;;;;20.95;13.50;;;;;;;20.35;90.70;100225.75;1651206;86;21435;-93
2022/08/17 03:20:49;;;;;;;22.17;12.90;;;;;;;20.37;90.81;100218.94;1656529;84;21092;-92
2022/08/17 03:23:15;;;;;;;18.75;13.10;;;;;;;20.38;90.79;100221.41;1629100;85;20953;-93
2022/08/17 03:25:44;;;;;;;18.25;12.85;;;;;;;20.40;90.68;100230.58;1637258;84;20995;-93
2022/08/17 03:28:11;;;;;;;19.92;12.53;;;;;;;20.41;90.56;100232.23;1650336;85;21573;-95
2022/08/17 03:30:42;;;;;;;23.25;11.75;;;;;;;20.41;90.64;100226.42;1639884;86;21086;-93
2022/08/17 03:33:09;;;;;;;18.73;13.08;;;;;;;20.42;90.56;100227.25;1636739;86;21155;-94
2022/08/17 03:35:39;;;;;;;22.73;14.75;;;;;;;20.44;90.82;100225.26;1640962;86;20941;-94
2022/08/17 03:38:08;;;;;;;22.13;12.13;;;;;;;20.48;90.77;100231.92;1641051;84;20948;-93
2022/08/17 03:40:36;;;;;;;24.23;12.93;;;;;;;20.51;90.52;100236.91;1623578;86;21012;-94
2022/08/17 03:43:09;;;;;;;19.32;13.18;;;;;;;20.55;90.43;100236.09;1639662;85;20901;-95
2022/08/17 03:56:47;;;;;;;20.82;10.82;;;;;;;20.78;90.23;100234.43;1647059;82;20975;-93
2022/08/17 03:59:16;;;;;;;19.82;13.50;;;;;;;20.85;90.03;100233.26;1659673;86;21168;-94
2022/08/17 04:01:49;;;;;;;18.90;12.73;;;;;;;20.90;89.75;100229.61;1646629;85;21004;-93
2022/08/17 04:04:16;;;;;;;17.90;13.20;;;;;;;20.96;89.54;100230.23;1660252;85;20976;-93
2022/08/17 04:06:43;;;;;;;20.10;12.88;;;;;;;21.01;89.13;100225.73;1638971;86;21118;-93
2022/08/17 04:09:10;;;;;;;19.40;13.53;;;;;;;21.07;88.90;100225.05;1637906;86;20932;-94
2022/08/17 04:11:37;;;;;;;19.55;12.47;;;;;;;21.14;88.65;100219.87;1656295;85;21309;-92
2022/08/17 04:14:03;;;;;;;17.80;11.97;;;;;;;21.20;88.40;100225.36;1627001;85;21016;-93
2022/08/17 04:16:32;;;;;;;21.82;13.25;;;;;;;21.30;88.12;100226.52;1645453;83;21023;-91
2022/08/17 04:19:01;;;;;;;16.05;12.90;;;;;;;21.40;87.85;100227.64;1656453;84;20964;-93
2022/08/17 04:21:28;;;;;;;19.00;12.93;;;;;;;21.50;87.74;100228.31;1651720;85;21088;-93
2022/08/17 04:23:56;;;;;;;18.12;12.82;;;;;;;21.60;87.32;100234.77;1635929;86;21233;-94
2022/08/17 04:26:23;;;;;;;22.45;13.18;;;;;;;21.69;86.85;100232.39;1657861;85;20944;-93
2022/08/17 04:28:50;;;;;;;25.68;13.05;;;;;;;21.79;86.42;100230.83;1654582;85;20968;-93
2022/08/17 04:31:17;;;;;;;19.27;14.03;;;;;;;21.90;86.17;100229.95;1660296;86;20920;-94
2022/08/17 04:33:45;;;;;;;27.67;14.05;;;;;;;22.03;86.13;100226.72;1655360;84;21039;-94
2022/08/17 04:36:13;;;;;;;22.37;13.50;;;;;;;22.15;85.82;100232.47;1636227;86;23454;-94
2022/08/17 04:38:43;;;;;;;20.88;11.63;;;;;;;22.26;85.46;100241.95;1652376;86;21008;-93
2022/08/17 04:43:57;;;;;;;22.50;13.68;;;;;;;22.51;84.58;100247.42;1646344;85;21015;-91
2022/08/17 04:46:31;;;;;;;19.82;13.68;;;;;;;22.67;84.00;100241.11;1647179;84;21004;-93
2022/08/17 04:48:58;;;;;;;20.88;12.13;;;;;;;22.83;83.65;100232.11;1643940;86;21290;-93
2022/08/17 04:51:29;;;;;;;25.23;13.40;;;;;;;22.99;82.70;100232.48;1644310;86;20928;-93
2022/08/17 04:54:05;;;;;;;18.77;12.07;;;;;;;23.14;82.08;100236.52;1630008;87;21505;-93
2022/08/17 04:56:32;;;;;;;18.85;11.95;;;;;;;23.33;81.78;100236.49;1646119;86;21201;-93
2022/08/17 04:59:11;;;;;;;19.90;12.68;;;;;;;23.53;81.30;100234.91;1651744;86;20984;-92
2022/08/17 05:01:39;;;;;;;22.85;11.48;;;;;;;23.73;80.42;100227.13;1660557;85;21334;-93
2022/08/17 05:04:09;;;;;;;17.50;10.85;;;;;;;23.95;79.65;100228.03;1653739;84;21075;-93
2022/08/17 05:06:42;;;;;;;22.58;10.20;;;;;;;24.24;78.75;100228.13;1650655;84;20908;-92
2022/08/17 05:09:09;;;;;;;12.37;10.45;;;;;;;24.71;77.76;100227.53;1644433;85;21036;-92
2022/08/17 05:11:36;;;;;;;13.35;9.80;;;;;;;25.30;76.26;100236.21;1653126;85;21371;-92
2022/08/17 05:14:02;;;;;;;21.37;10.70;;;;;;;25.95;73.86;100231.38;1634324;86;21268;-92
2022/08/17 05:16:29;;;;;;;17.70;10.48;;;;;;;26.62;71.56;100245.25;1659453;85;20979;-91
2022/08/17 05:18:57;;;;;;;19.05;12.15;;;;;;;27.27;69.25;100236.52;1646874;85;20920;-92
2022/08/17 05:21:25;;;;;;;18.15;9.90;;;;;;;27.88;67.21;100238.80;1640562;86;21221;-91
2022/08/17 05:23:52;;;;;;;14.93;9.03;;;;;;;28.48;65.64;100234.91;1646597;86;21039;-91
2022/08/17 05:26:19;;;;;;;17.40;9.73;;;;;;;29.08;63.43;100235.25;1653709;84;21771;-93
2022/08/17 05:28:48;;;;;;;18.65;9.33;;;;;;;29.62;61.43;100231.41;1635157;86;20996;-92
2022/08/17 05:31:14;;;;;;;16.52;9.28;;;;;;;30.15;59.75;100229.38;1652343;85;20889;-94
2022/08/17 05:33:42;;;;;;;24.60;9.85;;;;;;;30.60;57.76;100229.42;1651535;85;21019;-90
2022/08/17 05:36:10;;;;;;;20.27;12.65;;;;;;;31.00;56.33;100232.00;1649737;86;20982;-90
2022/08/17 05:38:37;;;;;;;21.97;10.95;;;;;;;31.34;55.68;100236.53;1651057;85;21115;-90
2022/08/17 05:41:06;;;;;;;18.95;12.50;;;;;;;31.68;54.37;100228.56;1644349;86;20971;-91
2022/08/17 05:43:38;;;;;;;25.20;13.83;;;;;;;32.07;53.71;100234.22;1650494;85;20972;-92
2022/08/17 05:46:26;;;;;;;23.75;12.95;;;;;;;32.46;52.66;100226.73;1630455;85;21086;-93
2022/08/17 05:49:03;;;;;;;19.50;13.65;;;;;;;32.77;51.47;100228.06;1640448;85;21008;-92
2022/08/17 05:51:54;;;;;;;23.00;14.30;;;;;;;33.12;50.41;100220.98;1652243;85;21869;-91
2022/08/17 05:54:35;;;;;;;23.57;13.18;;;;;;;33.40;49.70;100222.72;1655977;84;20940;-90
2022/08/17 05:57:40;;;;;;;18.45;15.05;;;;;;;33.67;48.70;100221.97;1665174;84;20997;-92
2022/08/17 06:00:24;;;;;;;29.18;15.50;;;;;;;33.86;48.19;100214.27;1662646;85;20843;-90
2022/08/17 06:03:06;;;;;;;29.87;19.98;;;;;;;34.09;47.84;100214.51;1651201;85;21386;-90
2022/08/17 06:06:16;;;;;;;33.88;22.02;;;;;;;34.36;46.78;100210.41;1607268;85;21128;-93
2022/08/17 06:08:54;;;;;;;40.83;22.90;;;;;;;34.53;46.19;100213.00;1653342;85;20973;-92
2022/08/17 06:11:49;;;;;;;42.20;26.45;;;;;;;34.62;45.79;100217.45;1639683;84;20880;-94
2022/08/17 06:14:42;;;;;;;27.00;19.90;;;;;;;34.69;44.98;100218.59;1621374;87;20927;-91
2022/08/17 06:17:13;;;;;;;36.70;20.88;;;;;;;34.62;44.94;100214.19;1621173;87;21053;-92
2022/08/17 06:19:48;;;;;;;33.18;17.67;;;;;;;34.64;45.04;100213.91;1638579;85;21632;-90
2022/08/17 06:22:18;;;;;;;29.45;19.48;;;;;;;34.72;44.81;100216.70;1641216;85;21470;-90
2022/08/17 06:25:10;;;;;;;31.17;18.73;;;;;;;34.76;44.66;100209.64;1648682;86;20924;-91
2022/08/17 06:27:42;;;;;;;37.38;24.75;;;;;;;34.91;44.33;100217.91;1651764;86;20952;-89
2022/08/17 06:30:27;;;;;;;27.85;19.40;;;;;;;35.02;43.50;100215.52;1653154;85;20983;-90
2022/08/17 06:32:58;;;;;;;31.93;19.57;;;;;;;35.06;43.69;100214.43;1660192;84;21166;-89
2022/08/17 06:35:33;;;;;;;26.75;19.15;;;;;;;35.23;43.67;100211.55;1658594;85;21468;-89
2022/08/17 06:38:22;;;;;;;30.45;17.40;;;;;;;35.52;43.55;100210.56;1654564;86;21110;-91
2022/08/17 06:41:11;;;;;;;27.37;19.32;;;;;;;35.63;42.24;100212.81;1654395;85;21170;-90
2022/08/17 06:43:56;;;;;;;27.42;16.93;;;;;;;35.82;41.85;100215.33;1646370;86;21690;-91
2022/08/17 06:46:37;;;;;;;24.85;17.20;;;;;;;35.94;42.18;100206.87;1635567;86;21180;-91
2022/08/17 06:49:31;;;;;;;27.22;16.75;;;;;;;36.13;41.65;100200.91;1646595;85;20984;-90
2022/08/17 06:52:18;;;;;;;27.73;16.05;;;;;;;36.29;41.51;100202.56;1656602;85;21019;-93
2022/08/17 06:55:03;;;;;;;28.45;15.93;;;;;;;36.43;41.08;100192.70;1625129;86;20972;-93
2022/08/17 06:57:42;;;;;;;21.23;13.78;;;;;;;36.65;40.70;100196.53;1652112;86;21051;-90
2022/08/17 07:00:15;;;;;;;21.75;13.08;;;;;;;36.81;40.04;100193.77;1653779;86;20980;-93
2022/08/17 07:03:04;;;;;;;26.07;13.08;;;;;;;37.04;39.75;100193.69;1653151;85;21055;-91
2022/08/17 07:05:45;;;;;;;21.42;12.50;;;;;;;37.33;39.29;100191.12;1649546;85;21000;-91
2022/08/17 07:08:50;;;;;;;18.67;11.43;;;;;;;37.65;38.52;100196.75;1651070;85;20912;-92
2022/08/17 07:11:28;;;;;;;21.95;10.58;;;;;;;37.93;38.00;100194.64;1642121;85;21091;-92
2022/08/17 07:14:01;;;;;;;18.12;11.05;;;;;;;38.18;37.48;100194.73;1656461;84;21243;-91
2022/08/17 07:16:35;;;;;;;;;;;;;;;38.46;36.82;100196.67;1657160;85;20960;-92
2022/08/17 07:19:04;;;;;;;22.02;11.38;;;;;;;38.71;36.33;100194.28;1652596;85;20443;-92
2022/08/17 07:21:53;;;;;;;15.18;9.65;;;;;;;38.87;35.99;100183.95;1624770;86;21003;-93
2022/08/17 07:24:42;;;;;;;23.18;12.15;;;;;;;38.97;35.60;100189.33;1642329;85;20948;-92
2022/08/17 07:27:22;;;;;;;14.90;9.30;;;;;;;39.04;35.57;100190.34;1658789;81;21177;-93
2022/08/17 07:30:03;;;;;;;14.70;10.32;;;;;;;39.12;34.82;100187.53;1662088;85;21025;-91
2022/08/17 07:32:52;;;;;;;18.27;10.95;;;;;;;39.30;35.17;100195.53;1660751;85;21000;-92
2022/08/17 07:35:29;;;;;;;19.42;9.88;;;;;;;39.43;34.87;100189.34;1655434;84;21015;-91
2022/08/17 07:38:17;;;;;;;17.45;10.30;;;;;;;39.49;34.87;100181.30;1628215;86;20965;-91
2022/08/17 07:41:01;;;;;;;19.55;10.38;;;;;;;39.52;34.74;100188.12;1632182;84;21796;-93
2022/08/17 07:43:42;;;;;;;24.55;10.95;;;;;;;39.45;35.27;100182.20;1656336;85;20956;-93
2022/08/17 07:49:32;;;;;;;19.73;12.88;;;;;;;39.67;34.66;100186.53;1654820;84;21182;-92
2022/08/17 07:52:04;;;;;;;18.75;10.28;;;;;;;39.60;34.51;100186.09;1636510;86;21533;-93
2022/08/17 07:54:38;;;;;;;16.45;8.70;;;;;;;39.63;34.54;100181.38;1642339;86;21323;-94
2022/08/17 07:57:34;;;;;;;14.65;8.15;;;;;;;39.70;33.17;100184.55;1627378;86;20944;-94
2022/08/17 08:00:12;;;;;;;11.28;6.28;;;;;;;39.61;32.63;100182.22;1641783;85;20956;-95
2022/08/17 08:02:42;;;;;;;16.67;8.83;;;;;;;39.44;32.31;100179.17;1651925;85;21082;-93
2022/08/17 08:05:26;;;;;;;16.60;9.28;;;;;;;39.04;32.32;100174.45;1644292;86;21014;-94
2022/08/17 08:08:03;;;;;;;25.75;15.10;;;;;;;38.79;33.79;100175.55;1660104;85;21489;-93
2022/08/17 08:10:35;;;;;;;17.57;9.83;;;;;;;38.33;34.11;100176.80;1639360;85;20948;-93
2022/08/17 08:13:16;;;;;;;22.05;10.30;;;;;;;37.80;34.79;100172.02;1637272;85;21034;-92
2022/08/17 08:15:49;;;;;;;19.10;9.95;;;;;;;37.27;35.48;100169.03;1651291;85;20976;-93
2022/08/17 08:18:32;;;;;;;20.48;10.98;;;;;;;36.75;36.23;100169.72;1651515;84;21489;-92
2022/08/17 08:21:03;;;;;;;18.12;9.70;;;;;;;36.31;37.33;100168.97;1652146;86;21149;-92
2022/08/17 08:24:05;;;;;;;17.30;10.20;;;;;;;35.98;38.48;100169.76;1648947;86;20972;-92
2022/08/17 08:26:58;;;;;;;15.18;8.88;;;;;;;35.93;39.58;100161.58;1645757;85;21016;-91
2022/08/17 08:29:44;;;;;;;;;;;;;;;36.09;39.42;100159.11;1648825;86;21565;-89
2022/08/17 08:32:52;;;;;;;18.65;8.78;;;;;;;36.31;39.22;100154.77;1659794;86;20105;-91
2022/08/17 08:35:33;;;;;;;16.40;9.83;;;;;;;36.60;38.93;100153.39;1654560;86;21166;-91
2022/08/17 08:38:46;;;;;;;15.28;8.48;;;;;;;36.90;38.48;100149.73;1649535;85;21016;-93
2022/08/17 08:44:46;;;;;;;19.67;9.10;;;;;;;37.37;36.17;100144.34;1712035;78;21111;-90
2022/08/17 08:47:54;;;;;;;13.48;9.08;;;;;;;37.65;36.22;100140.66;1735552;80;20986;-89
2022/08/17 08:51:00;;;;;;;12.82;8.25;;;;;;;38.04;35.35;100144.77;1746531;80;21175;-87
2022/08/17 08:53:41;;;;;;;9.53;7.15;;;;;;;38.50;35.00;100138.85;1700243;83;22268;-88
2022/08/17 08:56:31;;;;;;;10.47;6.43;;;;;;;38.86;33.41;100140.38;1665594;83;21008;-86
2022/08/17 08:59:21;;;;;;;14.38;8.13;;;;;;;39.07;33.20;100142.34;1716489;80;20979;-88
2022/08/17 09:02:03;;;;;;;11.80;9.25;;;;;;;39.33;33.14;100147.75;1734858;82;20891;-90
2022/08/17 09:04:47;;;;;;;16.37;7.97;;;;;;;39.49;32.36;100140.67;1727834;82;21210;-89
2022/08/17 09:07:35;;;;;;;12.55;7.72;;;;;;;39.74;32.32;100138.92;1732444;82;21005;-89
2022/08/17 09:10:24;;;;;;;9.13;6.75;;;;;;;39.96;31.77;100141.63;1721138;82;20900;-90
2022/08/17 09:13:15;;;;;;;10.38;6.60;;;;;;;40.15;30.78;100137.44;1713797;82;20884;-89
2022/08/17 09:16:19;;;;;;;11.93;6.62;;;;;;;40.33;29.95;100130.27;1704935;82;20932;-89
2022/08/17 09:18:57;;;;;;;12.13;8.13;;;;;;;40.52;29.48;100127.45;1715942;83;20971;-89
2022/08/17 09:21:39;;;;;;;12.90;8.13;;;;;;;40.69;30.34;100125.45;1697705;81;21006;-89
2022/08/17 09:24:11;;;;;;;12.00;7.35;;;;;;;40.83;29.71;100126.30;1715287;82;21032;-89
2022/08/17 09:27:01;;;;;;;13.28;8.30;;;;;;;41.00;29.31;100119.61;1711707;82;21228;-88
2022/08/17 09:32:00;;;;;;;11.73;8.73;;;;;;;41.00;28.81;100116.86;1886226;75;22317;-89
2022/08/17 09:34:54;;;;;;;16.97;10.18;;;;;;;40.88;29.44;100120.69;1861557;77;20914;-86
2022/08/17 09:38:01;;;;;;;14.00;9.10;;;;;;;40.95;29.16;100118.90;1858951;76;22093;-88
2022/08/17 09:40:40;;;;;;;9.40;8.23;;;;;;;40.88;29.22;100126.19;1861348;77;20962;-88
2022/08/17 09:43:15;;;;;;;13.60;7.47;;;;;;;40.72;28.79;100122.14;1861728;77;20871;-90
2022/08/17 09:45:51;;;;;;;11.93;7.50;;;;;;;40.73;29.21;100127.31;1861808;77;20923;-89
2022/08/17 09:48:38;;;;;;;12.07;8.18;;;;;;;40.82;29.46;100126.03;1861803;76;21285;-90
2022/08/17 09:51:31;;;;;;;12.20;7.22;;;;;;;40.98;28.95;100123.80;1860160;77;22084;-88
2022/08/17 09:53:58;;;;;;;13.98;11.55;;;;;;;41.13;29.33;100128.13;1784321;80;20892;-88
2022/08/17 09:56:48;;;;;;;14.47;9.28;;;;;;;41.25;28.51;100128.45;1784739;80;21436;-88
2022/08/17 09:59:45;;;;;;;14.40;8.58;;;;;;;41.29;28.26;100130.01;1746884;81;20947;-89
2022/08/17 10:02:52;;;;;;;12.58;8.40;;;;;;;41.27;28.19;100126.21;1747134;81;21010;-88
2022/08/17 10:05:45;;;;;;;12.20;8.23;;;;;;;41.27;28.62;100126.75;1715619;82;21261;-88
2022/08/17 10:08:54;;;;;;;13.03;8.73;;;;;;;41.30;28.61;100126.95;1715633;83;21007;-88
2022/08/17 10:15:03;;;;;;;14.05;8.70;;;;;;;41.26;28.62;100121.81;1747053;81;20939;-88
2022/08/17 10:17:49;;;;;;;11.50;9.48;;;;;;;41.18;28.67;100127.50;1735553;82;21011;-88
2022/08/17 10:20:30;;;;;;;10.38;9.03;;;;;;;40.89;28.15;100125.08;1735301;82;21151;-86
2022/08/17 10:28:39;;;;;;;11.08;8.30;;;;;;;39.97;30.27;100137.75;1698595;84;21006;-89
2022/08/17 10:31:08;;;;;;;14.58;8.73;;;;;;;39.55;31.02;100138.11;1699523;83;20931;-88
2022/08/17 10:34:08;;;;;;;11.78;8.63;;;;;;;39.36;31.83;100134.80;1699775;84;21248;-88
2022/08/17 10:36:45;;;;;;;12.70;7.80;;;;;;;39.30;31.21;100132.42;1690700;84;20950;-89
2022/08/17 10:39:34;;;;;;;12.05;8.98;;;;;;;39.34;30.55;100132.09;1699660;84;21483;-87
2022/08/17 10:42:06;;;;;;;16.45;9.85;;;;;;;39.18;31.26;100128.75;1699304;84;21006;-88
2022/08/17 10:44:55;;;;;;;13.70;8.45;;;;;;;39.13;31.67;100124.69;1698821;84;20943;-88
2022/08/17 10:47:20;;;;;;;20.85;17.15;;;;;;;39.17;31.17;100124.36;1699148;84;21158;-86
2022/08/17 10:49:52;;;;;;;12.78;8.80;;;;;;;39.21;30.72;100125.97;1699146;84;20935;-90
2022/08/17 10:52:25;;;;;;;12.13;8.10;;;;;;;39.37;30.37;100123.25;1715395;79;21105;-89
2022/08/17 10:54:57;;;;;;;9.50;8.35;;;;;;;39.44;30.22;100121.55;1820175;78;20959;-90
2022/08/17 10:57:35;;;;;;;;;;;;;;;39.47;30.51;100125.89;1823128;78;21356;-88
2022/08/17 11:00:26;;;;;;;14.53;9.65;;;;;;;39.21;30.76;100117.74;1820206;79;21185;-90
2022/08/17 11:02:53;;;;;;;13.93;9.98;;;;;;;38.92;31.17;100118.08;1819855;78;20938;-89
2022/08/17 11:05:34;;;;;;;16.52;9.83;;;;;;;38.68;31.46;100117.28;1820041;79;20986;-88
2022/08/17 11:08:24;;;;;;;11.95;9.93;;;;;;;38.35;31.96;100119.27;1819356;78;20879;-88
2022/08/17 11:11:11;;;;;;;15.15;10.13;;;;;;;37.93;32.28;100126.73;1820372;78;20929;-88
2022/08/17 11:13:56;;;;;;;15.93;10.40;;;;;;;37.41;33.01;100120.79;1820267;78;21252;-89
2022/08/17 11:16:46;;;;;;;18.42;11.10;;;;;;;36.97;34.07;100121.53;1797849;78;20982;-89
2022/08/17 11:19:45;;;;;;;13.55;11.50;;;;;;;36.59;35.08;100122.46;1820481;79;20836;-89
2022/08/17 11:22:56;;;;;;;16.23;11.05;;;;;;;36.19;36.13;100117.35;1820412;79;21447;-88
2022/08/17 11:25:48;;;;;;;18.75;10.63;;;;;;;35.79;36.23;100112.15;1820672;78;20895;-90
2022/08/17 11:28:33;;;;;;;14.35;11.43;;;;;;;35.47;36.60;100113.19;1819994;78;21132;-88
2022/08/17 11:31:00;;;;;;;16.02;10.38;;;;;;;35.26;37.79;100104.16;1819460;78;20907;-88
2022/08/17 11:33:45;;;;;;;14.80;9.78;;;;;;;35.20;37.87;100102.49;1821176;77;20981;-88
2022/08/17 11:36:23;;;;;;;12.60;9.50;;;;;;;35.25;37.92;100103.05;1821008;78;21346;-88
2022/08/17 11:39:14;;;;;;;13.58;9.53;;;;;;;35.31;37.68;100096.53;1821120;77;21053;-89
2022/08/17 11:42:04;;;;;;;9.48;6.28;;;;;;;35.40;37.25;100089.45;1821163;77;21294;-88
2022/08/17 11:45:06;;;;;;;8.48;6.78;;;;;;;35.51;36.68;100090.29;1821136;78;20911;-89
2022/08/17 11:53:46;;;;;;;14.20;6.92;;;;;;;35.79;36.26;100086.23;1821272;78;20958;-88
2022/08/17 11:56:40;;;;;;;8.68;7.03;;;;;;;35.83;35.74;100081.86;1821177;77;21175;-89
2022/08/17 11:59:34;;;;;;;13.83;7.20;;;;;;;35.81;34.88;100080.50;1820944;78;20884;-89
2022/08/17 12:02:05;;;;;;;9.60;7.17;;;;;;;35.77;35.07;100076.68;1809754;79;20935;-88
2022/08/17 12:04:33;;;;;;;10.75;8.65;;;;;;;35.65;36.10;100085.14;1748276;80;20959;-89
2022/08/17 12:07:17;;;;;;;11.80;10.63;;;;;;;35.50;36.61;100082.62;1762586;81;20926;-88
2022/08/17 12:09:47;;;;;;;10.20;7.08;;;;;;;35.40;36.43;100071.72;1762311;80;21092;-89
2022/08/17 12:12:32;;;;;;;10.38;7.65;;;;;;;35.33;36.75;100073.91;1783042;79;20847;-87
2022/08/17 12:14:57;;;;;;;12.03;7.45;;;;;;;35.22;36.17;100072.25;1783105;79;20835;-88
2022/08/17 12:17:29;;;;;;;8.93;7.35;;;;;;;35.04;36.97;100063.97;1783108;79;21455;-87
2022/08/17 12:20:23;;;;;;;12.90;11.65;;;;;;;34.92;37.39;100066.93;1783085;80;20875;-86
2022/08/17 12:23:24;;;;;;;11.03;9.35;;;;;;;34.81;37.94;100059.81;1755857;80;21092;-86
2022/08/17 12:26:18;;;;;;;15.30;9.68;;;;;;;34.69;37.40;100055.15;1782709;79;20990;-90
2022/08/17 12:28:47;;;;;;;24.85;18.15;;;;;;;34.36;37.29;100053.85;1782937;79;20882;-88
2022/08/17 12:31:28;;;;;;;15.08;13.32;;;;;;;34.11;37.75;100052.35;1762469;81;20947;-87
2022/08/17 12:33:55;;;;;;;13.83;8.00;;;;;;;33.98;38.56;100049.51;1784322;80;20907;-88